sensor_id;sensor_type;location;lat;lon;timestamp;temperature;humidity
49855;DHT22;35752;52.164;21.244;2023-02-28T00:02:20;-3.20;99.90
49855;DHT22;35752;52.164;21.244;2023-02-28T00:04:45;-3.40;99.90
49855;DHT22;35752;52.164;21.244;2023-02-28T00:07:18;-3.40;99.90
49855;DHT22;35752;52.164;21.244;2023-02-28T00:09:43;-3.40;1.00
49855;DHT22;35752;52.164;21.244;2023-02-28T00:12:09;-3.30;1.00
49855;DHT22;35752;52.164;21.244;2023-02-28T00:14:36;-3.30;1.00
49855;DHT22;35752;52.164;21.244;2023-02-28T00:17:01;-3.50;99.90
49855;DHT22;35752;52.164;21.244;2023-02-28T00:19:27;-3.40;99.90
49855;DHT22;35752;52.164;21.244;2023-02-28T00:21:52;-3.30;99.90
49855;DHT22;35752;52.164;21.244;2023-02-28T00:24:18;-3.30;99.90
49855;DHT22;35752;52.164;21.244;2023-02-28T00:26:43;-3.40;99.90
49855;DHT22;35752;52.164;21.244;2023-02-28T00:29:09;-3.50;99.90
49855;DHT22;35752;52.164;21.244;2023-02-28T00:31:34;-3.30;99.90
49855;DHT22;35752;52.164;21.244;2023-02-28T00:34:00;-3.40;99.90
49855;DHT22;35752;52.164;21.244;2023-02-28T00:36:26;-3.40;99.90
49855;DHT22;35752;52.164;21.244;2023-02-28T00:38:51;-3.40;99.90
49855;DHT22;35752;52.164;21.244;2023-02-28T00:41:17;-3.60;99.90
49855;DHT22;35752;52.164;21.244;2023-02-28T00:43:42;-3.70;99.90
49855;DHT22;35752;52.164;21.244;2023-02-28T00:46:08;-3.80;99.90
49855;DHT22;35752;52.164;21.244;2023-02-28T00:48:34;-3.70;99.90
49855;DHT22;35752;52.164;21.244;2023-02-28T00:50:59;-3.70;99.90
49855;DHT22;35752;52.164;21.244;2023-02-28T00:53:25;-3.60;99.90
49855;DHT22;35752;52.164;21.244;2023-02-28T00:55:51;-3.70;99.90
49855;DHT22;35752;52.164;21.244;2023-02-28T00:58:17;-3.80;99.90
49855;DHT22;35752;52.164;21.244;2023-02-28T01:00:42;-4.00;99.90
49855;DHT22;35752;52.164;21.244;2023-02-28T01:03:08;-4.00;99.90
49855;DHT22;35752;52.164;21.244;2023-02-28T01:05:33;-3.90;99.90
49855;DHT22;35752;52.164;21.244;2023-02-28T01:07:59;-3.90;99.90
49855;DHT22;35752;52.164;21.244;2023-02-28T01:10:25;-4.00;99.90
49855;DHT22;35752;52.164;21.244;2023-02-28T01:12:50;-4.20;99.90
49855;DHT22;35752;52.164;21.244;2023-02-28T01:15:16;-4.10;99.90
49855;DHT22;35752;52.164;21.244;2023-02-28T01:17:42;-4.10;99.90
49855;DHT22;35752;52.164;21.244;2023-02-28T01:20:07;-4.00;99.90
49855;DHT22;35752;52.164;21.244;2023-02-28T01:22:34;-4.00;99.90
49855;DHT22;35752;52.164;21.244;2023-02-28T01:24:59;-3.90;99.90
49855;DHT22;35752;52.164;21.244;2023-02-28T01:27:25;-4.10;99.90
49855;DHT22;35752;52.164;21.244;2023-02-28T01:29:51;-4.20;99.90
49855;DHT22;35752;52.164;21.244;2023-02-28T01:32:17;-4.20;99.90
49855;DHT22;35752;52.164;21.244;2023-02-28T01:34:43;-4.20;99.90
49855;DHT22;35752;52.164;21.244;2023-02-28T01:37:08;-4.20;99.90
49855;DHT22;35752;52.164;21.244;2023-02-28T01:39:34;-4.10;99.90
49855;DHT22;35752;52.164;21.244;2023-02-28T01:41:59;-4.10;99.90
49855;DHT22;35752;52.164;21.244;2023-02-28T01:47:09;-4.10;99.90
49855;DHT22;35752;52.164;21.244;2023-02-28T01:49:35;-4.10;99.90
49855;DHT22;35752;52.164;21.244;2023-02-28T01:52:00;-4.20;99.90
49855;DHT22;35752;52.164;21.244;2023-02-28T01:54:27;-4.20;99.90
49855;DHT22;35752;52.164;21.244;2023-02-28T01:56:55;-4.30;99.90
49855;DHT22;35752;52.164;21.244;2023-02-28T01:59:24;-4.30;99.90
49855;DHT22;35752;52.164;21.244;2023-02-28T02:01:52;-4.30;99.90
49855;DHT22;35752;52.164;21.244;2023-02-28T02:04:18;-4.50;99.90
49855;DHT22;35752;52.164;21.244;2023-02-28T02:06:46;-4.50;99.90
49855;DHT22;35752;52.164;21.244;2023-02-28T02:09:13;-4.40;99.90
49855;DHT22;35752;52.164;21.244;2023-02-28T02:11:39;-4.50;99.90
49855;DHT22;35752;52.164;21.244;2023-02-28T02:14:15;-4.50;99.90
49855;DHT22;35752;52.164;21.244;2023-02-28T02:16:47;-4.40;99.90
49855;DHT22;35752;52.164;21.244;2023-02-28T02:29:45;-4.50;99.90
49855;DHT22;35752;52.164;21.244;2023-02-28T02:38:18;-4.40;99.90
49855;DHT22;35752;52.164;21.244;2023-02-28T02:42:39;-4.30;99.90
49855;DHT22;35752;52.164;21.244;2023-02-28T02:45:12;-4.30;99.90
49855;DHT22;35752;52.164;21.244;2023-02-28T02:47:39;-4.30;99.90
49855;DHT22;35752;52.164;21.244;2023-02-28T02:50:05;-4.30;99.90
49855;DHT22;35752;52.164;21.244;2023-02-28T02:52:34;-4.40;99.90
49855;DHT22;35752;52.164;21.244;2023-02-28T02:55:02;-4.50;99.90
49855;DHT22;35752;52.164;21.244;2023-02-28T02:57:36;-4.50;99.90
49855;DHT22;35752;52.164;21.244;2023-02-28T03:00:03;-4.50;99.90
49855;DHT22;35752;52.164;21.244;2023-02-28T03:02:30;-4.50;99.90
49855;DHT22;35752;52.164;21.244;2023-02-28T03:05:00;-4.60;99.90
49855;DHT22;35752;52.164;21.244;2023-02-28T03:07:27;-4.80;99.90
49855;DHT22;35752;52.164;21.244;2023-02-28T03:09:53;-4.80;99.90
49855;DHT22;35752;52.164;21.244;2023-02-28T03:12:19;-4.80;99.90
49855;DHT22;35752;52.164;21.244;2023-02-28T03:15:02;-4.80;99.90
49855;DHT22;35752;52.164;21.244;2023-02-28T03:25:12;-4.80;99.90
49855;DHT22;35752;52.164;21.244;2023-02-28T03:27:45;-4.80;99.90
49855;DHT22;35752;52.164;21.244;2023-02-28T03:32:53;-4.80;99.90
49855;DHT22;35752;52.164;21.244;2023-02-28T03:35:24;-4.80;99.90
49855;DHT22;35752;52.164;21.244;2023-02-28T03:37:52;-4.90;99.90
49855;DHT22;35752;52.164;21.244;2023-02-28T03:40:21;-4.80;99.90
49855;DHT22;35752;52.164;21.244;2023-02-28T03:42:49;-4.90;99.90
49855;DHT22;35752;52.164;21.244;2023-02-28T03:45:20;-5.00;99.90
49855;DHT22;35752;52.164;21.244;2023-02-28T03:47:52;-5.20;99.90
49855;DHT22;35752;52.164;21.244;2023-02-28T03:50:24;-5.20;99.90
49855;DHT22;35752;52.164;21.244;2023-02-28T03:53:02;-5.20;99.90
49855;DHT22;35752;52.164;21.244;2023-02-28T03:55:31;-5.10;99.90
49855;DHT22;35752;52.164;21.244;2023-02-28T04:00:37;-5.30;99.90
49855;DHT22;35752;52.164;21.244;2023-02-28T04:03:04;-5.20;99.90
49855;DHT22;35752;52.164;21.244;2023-02-28T04:05:29;-5.20;99.90
49855;DHT22;35752;52.164;21.244;2023-02-28T04:08:05;-5.10;99.90
49855;DHT22;35752;52.164;21.244;2023-02-28T04:10:31;-5.10;99.90
49855;DHT22;35752;52.164;21.244;2023-02-28T04:12:57;-5.10;99.90
49855;DHT22;35752;52.164;21.244;2023-02-28T04:15:22;-5.10;99.90
49855;DHT22;35752;52.164;21.244;2023-02-28T04:17:50;-5.10;99.90
49855;DHT22;35752;52.164;21.244;2023-02-28T04:20:15;-5.10;99.90
49855;DHT22;35752;52.164;21.244;2023-02-28T04:22:41;-5.10;99.90
49855;DHT22;35752;52.164;21.244;2023-02-28T04:25:07;-5.00;99.90
49855;DHT22;35752;52.164;21.244;2023-02-28T04:27:32;-5.00;99.90
49855;DHT22;35752;52.164;21.244;2023-02-28T04:29:58;-5.00;99.90
49855;DHT22;35752;52.164;21.244;2023-02-28T04:32:23;-5.10;99.90
49855;DHT22;35752;52.164;21.244;2023-02-28T04:34:49;-5.20;99.90
49855;DHT22;35752;52.164;21.244;2023-02-28T04:37:14;-5.20;99.90
49855;DHT22;35752;52.164;21.244;2023-02-28T04:39:40;-5.40;99.90
49855;DHT22;35752;52.164;21.244;2023-02-28T04:42:06;-5.50;99.90
49855;DHT22;35752;52.164;21.244;2023-02-28T04:44:31;-5.70;99.90
49855;DHT22;35752;52.164;21.244;2023-02-28T04:46:57;-5.50;99.90
49855;DHT22;35752;52.164;21.244;2023-02-28T04:49:22;-5.50;99.90
49855;DHT22;35752;52.164;21.244;2023-02-28T04:51:48;-5.60;99.90
49855;DHT22;35752;52.164;21.244;2023-02-28T04:54:15;-5.60;99.90
49855;DHT22;35752;52.164;21.244;2023-02-28T04:56:41;-5.50;99.90
49855;DHT22;35752;52.164;21.244;2023-02-28T04:59:07;-5.50;99.90
49855;DHT22;35752;52.164;21.244;2023-02-28T05:01:33;-5.40;99.90
49855;DHT22;35752;52.164;21.244;2023-02-28T05:04:00;-5.40;99.90
49855;DHT22;35752;52.164;21.244;2023-02-28T05:06:27;-5.40;99.90
49855;DHT22;35752;52.164;21.244;2023-02-28T05:08:53;-5.40;99.90
49855;DHT22;35752;52.164;21.244;2023-02-28T05:11:23;-5.30;99.90
49855;DHT22;35752;52.164;21.244;2023-02-28T05:13:49;-5.30;99.90
49855;DHT22;35752;52.164;21.244;2023-02-28T05:16:15;-5.20;99.90
49855;DHT22;35752;52.164;21.244;2023-02-28T05:18:41;-5.30;99.90
49855;DHT22;35752;52.164;21.244;2023-02-28T05:21:14;-5.20;99.90
49855;DHT22;35752;52.164;21.244;2023-02-28T05:23:48;-5.20;99.90
49855;DHT22;35752;52.164;21.244;2023-02-28T05:26:14;-5.40;99.90
49855;DHT22;35752;52.164;21.244;2023-02-28T05:28:39;-5.40;99.90
49855;DHT22;35752;52.164;21.244;2023-02-28T05:31:05;-5.40;99.90
49855;DHT22;35752;52.164;21.244;2023-02-28T05:33:31;-5.40;99.90
49855;DHT22;35752;52.164;21.244;2023-02-28T05:35:56;-5.40;99.90
49855;DHT22;35752;52.164;21.244;2023-02-28T05:38:22;-5.40;99.90
49855;DHT22;35752;52.164;21.244;2023-02-28T05:40:47;-5.30;99.90
49855;DHT22;35752;52.164;21.244;2023-02-28T05:43:13;-5.40;99.90
49855;DHT22;35752;52.164;21.244;2023-02-28T05:45:38;-5.50;99.90
49855;DHT22;35752;52.164;21.244;2023-02-28T05:48:04;-5.60;99.90
49855;DHT22;35752;52.164;21.244;2023-02-28T05:50:30;-5.60;99.90
49855;DHT22;35752;52.164;21.244;2023-02-28T05:52:55;-5.60;99.90
49855;DHT22;35752;52.164;21.244;2023-02-28T05:55:21;-5.50;99.90
49855;DHT22;35752;52.164;21.244;2023-02-28T05:57:46;-5.40;99.90
49855;DHT22;35752;52.164;21.244;2023-02-28T06:00:12;-5.30;99.90
49855;DHT22;35752;52.164;21.244;2023-02-28T06:02:40;-5.30;99.90
49855;DHT22;35752;52.164;21.244;2023-02-28T06:05:07;-5.20;99.90
49855;DHT22;35752;52.164;21.244;2023-02-28T06:07:36;-5.10;99.90
49855;DHT22;35752;52.164;21.244;2023-02-28T06:10:01;-5.00;99.90
49855;DHT22;35752;52.164;21.244;2023-02-28T06:12:27;-5.00;99.90
49855;DHT22;35752;52.164;21.244;2023-02-28T06:14:52;-5.00;99.90
49855;DHT22;35752;52.164;21.244;2023-02-28T06:17:18;-5.10;99.90
49855;DHT22;35752;52.164;21.244;2023-02-28T06:19:43;-4.90;99.90
49855;DHT22;35752;52.164;21.244;2023-02-28T06:22:09;-4.70;99.90
49855;DHT22;35752;52.164;21.244;2023-02-28T06:24:34;-4.60;99.90
49855;DHT22;35752;52.164;21.244;2023-02-28T06:27:00;-4.40;99.90
49855;DHT22;35752;52.164;21.244;2023-02-28T06:29:33;-4.30;99.90
49855;DHT22;35752;52.164;21.244;2023-02-28T06:31:59;-4.20;99.90
49855;DHT22;35752;52.164;21.244;2023-02-28T06:34:25;-4.00;99.90
49855;DHT22;35752;52.164;21.244;2023-02-28T06:36:50;-4.00;99.90
49855;DHT22;35752;52.164;21.244;2023-02-28T06:39:16;-3.80;99.90
49855;DHT22;35752;52.164;21.244;2023-02-28T06:41:42;-3.70;99.90
49855;DHT22;35752;52.164;21.244;2023-02-28T06:44:14;-3.60;99.90
49855;DHT22;35752;52.164;21.244;2023-02-28T06:46:41;-3.50;99.90
49855;DHT22;35752;52.164;21.244;2023-02-28T06:49:07;-3.40;99.90
49855;DHT22;35752;52.164;21.244;2023-02-28T06:51:34;-3.30;99.90
49855;DHT22;35752;52.164;21.244;2023-02-28T06:54:00;-3.20;99.90
49855;DHT22;35752;52.164;21.244;2023-02-28T06:56:26;-3.10;99.90
49855;DHT22;35752;52.164;21.244;2023-02-28T06:58:51;-3.00;99.90
49855;DHT22;35752;52.164;21.244;2023-02-28T07:01:18;-2.90;99.90
49855;DHT22;35752;52.164;21.244;2023-02-28T07:03:44;-2.80;99.90
49855;DHT22;35752;52.164;21.244;2023-02-28T07:06:10;-2.70;99.90
49855;DHT22;35752;52.164;21.244;2023-02-28T07:08:35;-2.60;99.90
49855;DHT22;35752;52.164;21.244;2023-02-28T07:11:01;-2.40;99.90
49855;DHT22;35752;52.164;21.244;2023-02-28T07:13:27;-2.10;99.90
49855;DHT22;35752;52.164;21.244;2023-02-28T07:15:53;-2.00;99.90
49855;DHT22;35752;52.164;21.244;2023-02-28T07:18:19;-1.90;99.90
49855;DHT22;35752;52.164;21.244;2023-02-28T07:20:44;-1.70;99.90
49855;DHT22;35752;52.164;21.244;2023-02-28T07:23:10;-1.60;99.90
49855;DHT22;35752;52.164;21.244;2023-02-28T07:25:35;-1.60;99.90
49855;DHT22;35752;52.164;21.244;2023-02-28T07:28:01;-1.50;99.90
49855;DHT22;35752;52.164;21.244;2023-02-28T07:30:26;-1.30;99.90
49855;DHT22;35752;52.164;21.244;2023-02-28T07:32:52;-1.20;99.90
49855;DHT22;35752;52.164;21.244;2023-02-28T07:35:19;-1.20;99.90
49855;DHT22;35752;52.164;21.244;2023-02-28T07:37:45;-1.10;99.90
49855;DHT22;35752;52.164;21.244;2023-02-28T07:40:12;-1.10;99.90
49855;DHT22;35752;52.164;21.244;2023-02-28T07:42:38;-0.90;99.90
49855;DHT22;35752;52.164;21.244;2023-02-28T07:45:04;-0.80;99.90
49855;DHT22;35752;52.164;21.244;2023-02-28T07:47:30;-0.80;99.90
49855;DHT22;35752;52.164;21.244;2023-02-28T07:49:56;-0.60;99.90
49855;DHT22;35752;52.164;21.244;2023-02-28T07:52:21;-0.50;99.90
49855;DHT22;35752;52.164;21.244;2023-02-28T07:54:49;-0.30;99.90
49855;DHT22;35752;52.164;21.244;2023-02-28T07:57:14;-0.20;99.90
49855;DHT22;35752;52.164;21.244;2023-02-28T07:59:40;-0.20;99.90
49855;DHT22;35752;52.164;21.244;2023-02-28T08:02:06;-0.10;99.90
49855;DHT22;35752;52.164;21.244;2023-02-28T08:04:32;0.10;99.90
49855;DHT22;35752;52.164;21.244;2023-02-28T08:06:57;0.10;99.90
49855;DHT22;35752;52.164;21.244;2023-02-28T08:09:23;0.20;99.90
49855;DHT22;35752;52.164;21.244;2023-02-28T08:11:48;0.20;99.90
49855;DHT22;35752;52.164;21.244;2023-02-28T08:14:14;0.30;99.90
49855;DHT22;35752;52.164;21.244;2023-02-28T08:16:40;0.30;99.90
49855;DHT22;35752;52.164;21.244;2023-02-28T08:19:05;0.30;99.90
49855;DHT22;35752;52.164;21.244;2023-02-28T08:21:31;0.30;99.90
49855;DHT22;35752;52.164;21.244;2023-02-28T08:23:56;0.20;99.90
49855;DHT22;35752;52.164;21.244;2023-02-28T08:26:22;0.30;99.90
49855;DHT22;35752;52.164;21.244;2023-02-28T08:28:47;0.30;99.90
49855;DHT22;35752;52.164;21.244;2023-02-28T08:31:14;0.40;99.10
49855;DHT22;35752;52.164;21.244;2023-02-28T08:33:40;0.30;97.80
49855;DHT22;35752;52.164;21.244;2023-02-28T08:36:06;0.30;97.70
49855;DHT22;35752;52.164;21.244;2023-02-28T08:38:32;0.30;97.30
49855;DHT22;35752;52.164;21.244;2023-02-28T08:40:59;0.30;97.80
49855;DHT22;35752;52.164;21.244;2023-02-28T08:43:25;0.50;97.60
49855;DHT22;35752;52.164;21.244;2023-02-28T08:45:51;0.60;98.00
49855;DHT22;35752;52.164;21.244;2023-02-28T08:48:17;0.60;99.10
49855;DHT22;35752;52.164;21.244;2023-02-28T08:50:42;0.60;96.40
49855;DHT22;35752;52.164;21.244;2023-02-28T08:53:08;0.70;97.60
49855;DHT22;35752;52.164;21.244;2023-02-28T08:55:33;0.80;97.60
49855;DHT22;35752;52.164;21.244;2023-02-28T08:57:59;1.00;97.80
49855;DHT22;35752;52.164;21.244;2023-02-28T09:00:26;1.10;97.40
49855;DHT22;35752;52.164;21.244;2023-02-28T09:02:52;1.20;96.90
49855;DHT22;35752;52.164;21.244;2023-02-28T09:05:17;1.20;96.60
49855;DHT22;35752;52.164;21.244;2023-02-28T09:07:43;1.10;94.50
49855;DHT22;35752;52.164;21.244;2023-02-28T09:10:09;1.10;94.90
49855;DHT22;35752;52.164;21.244;2023-02-28T09:12:35;1.10;94.50
49855;DHT22;35752;52.164;21.244;2023-02-28T09:15:01;1.10;94.60
49855;DHT22;35752;52.164;21.244;2023-02-28T09:17:26;1.20;93.70
49855;DHT22;35752;52.164;21.244;2023-02-28T09:19:52;1.20;93.80
49855;DHT22;35752;52.164;21.244;2023-02-28T09:22:17;1.20;93.50
49855;DHT22;35752;52.164;21.244;2023-02-28T09:24:43;1.20;93.60
49855;DHT22;35752;52.164;21.244;2023-02-28T09:27:10;1.30;93.30
49855;DHT22;35752;52.164;21.244;2023-02-28T09:29:35;1.30;92.60
49855;DHT22;35752;52.164;21.244;2023-02-28T09:32:01;1.20;92.60
49855;DHT22;35752;52.164;21.244;2023-02-28T09:34:27;1.40;93.30
49855;DHT22;35752;52.164;21.244;2023-02-28T09:36:56;1.40;93.70
49855;DHT22;35752;52.164;21.244;2023-02-28T09:39:22;1.50;93.10
49855;DHT22;35752;52.164;21.244;2023-02-28T09:41:48;1.60;93.00
49855;DHT22;35752;52.164;21.244;2023-02-28T09:46:48;1.80;92.40
49855;DHT22;35752;52.164;21.244;2023-02-28T09:49:19;1.80;92.10
49855;DHT22;35752;52.164;21.244;2023-02-28T09:52:05;2.00;92.20
49855;DHT22;35752;52.164;21.244;2023-02-28T09:54:34;2.00;92.10
49855;DHT22;35752;52.164;21.244;2023-02-28T10:04:58;2.10;91.80
49855;DHT22;35752;52.164;21.244;2023-02-28T10:07:37;2.10;91.10
49855;DHT22;35752;52.164;21.244;2023-02-28T10:10:10;2.20;91.80
49855;DHT22;35752;52.164;21.244;2023-02-28T10:12:39;2.30;91.40
49855;DHT22;35752;52.164;21.244;2023-02-28T10:15:07;2.40;92.00
49855;DHT22;35752;52.164;21.244;2023-02-28T10:17:39;2.30;91.10
49855;DHT22;35752;52.164;21.244;2023-02-28T10:20:13;2.40;91.60
49855;DHT22;35752;52.164;21.244;2023-02-28T10:22:44;2.50;91.30
49855;DHT22;35752;52.164;21.244;2023-02-28T10:25:17;2.50;91.10
49855;DHT22;35752;52.164;21.244;2023-02-28T10:27:44;2.50;90.80
49855;DHT22;35752;52.164;21.244;2023-02-28T10:30:12;2.30;89.80
49855;DHT22;35752;52.164;21.244;2023-02-28T10:32:39;2.10;89.40
49855;DHT22;35752;52.164;21.244;2023-02-28T10:37:43;2.10;90.40
49855;DHT22;35752;52.164;21.244;2023-02-28T10:40:31;2.20;91.00
49855;DHT22;35752;52.164;21.244;2023-02-28T10:42:59;2.10;90.10
49855;DHT22;35752;52.164;21.244;2023-02-28T10:45:25;2.00;90.40
49855;DHT22;35752;52.164;21.244;2023-02-28T10:50:27;2.10;90.20
49855;DHT22;35752;52.164;21.244;2023-02-28T10:52:53;2.10;90.40
49855;DHT22;35752;52.164;21.244;2023-02-28T10:55:21;2.10;90.30
49855;DHT22;35752;52.164;21.244;2023-02-28T10:57:48;2.10;90.20
49855;DHT22;35752;52.164;21.244;2023-02-28T11:00:19;2.00;89.80
49855;DHT22;35752;52.164;21.244;2023-02-28T11:02:44;2.20;90.20
49855;DHT22;35752;52.164;21.244;2023-02-28T11:08:31;2.30;90.20
49855;DHT22;35752;52.164;21.244;2023-02-28T11:10:38;2.40;90.50
49855;DHT22;35752;52.164;21.244;2023-02-28T11:13:04;2.50;90.00
49855;DHT22;35752;52.164;21.244;2023-02-28T11:15:31;2.40;89.00
49855;DHT22;35752;52.164;21.244;2023-02-28T11:17:59;2.50;90.00
49855;DHT22;35752;52.164;21.244;2023-02-28T11:20:26;2.60;89.40
49855;DHT22;35752;52.164;21.244;2023-02-28T11:22:53;2.40;88.00
49855;DHT22;35752;52.164;21.244;2023-02-28T11:25:24;2.50;88.90
49855;DHT22;35752;52.164;21.244;2023-02-28T11:27:57;2.60;89.50
49855;DHT22;35752;52.164;21.244;2023-02-28T11:32:52;2.70;89.40
49855;DHT22;35752;52.164;21.244;2023-02-28T11:35:21;2.80;88.80
49855;DHT22;35752;52.164;21.244;2023-02-28T11:37:48;2.70;87.20
49855;DHT22;35752;52.164;21.244;2023-02-28T11:40:18;2.60;86.50
49855;DHT22;35752;52.164;21.244;2023-02-28T11:45:24;2.80;88.60
49855;DHT22;35752;52.164;21.244;2023-02-28T11:55:37;3.00;85.70
49855;DHT22;35752;52.164;21.244;2023-02-28T12:06:15;3.00;86.50
49855;DHT22;35752;52.164;21.244;2023-02-28T12:08:55;3.00;85.50
49855;DHT22;35752;52.164;21.244;2023-02-28T12:16:20;3.00;85.80
49855;DHT22;35752;52.164;21.244;2023-02-28T12:18:55;3.00;85.60
49855;DHT22;35752;52.164;21.244;2023-02-28T12:26:40;3.00;86.60
49855;DHT22;35752;52.164;21.244;2023-02-28T12:29:15;3.00;85.90
49855;DHT22;35752;52.164;21.244;2023-02-28T12:31:44;3.00;86.50
49855;DHT22;35752;52.164;21.244;2023-02-28T12:34:12;3.00;85.70
49855;DHT22;35752;52.164;21.244;2023-02-28T12:36:38;2.90;85.70
49855;DHT22;35752;52.164;21.244;2023-02-28T12:39:10;2.90;85.70
49855;DHT22;35752;52.164;21.244;2023-02-28T12:41:42;3.00;87.30
49855;DHT22;35752;52.164;21.244;2023-02-28T12:44:11;3.00;85.50
49855;DHT22;35752;52.164;21.244;2023-02-28T12:46:38;3.00;85.30
49855;DHT22;35752;52.164;21.244;2023-02-28T12:49:11;3.00;87.40
49855;DHT22;35752;52.164;21.244;2023-02-28T12:51:37;3.10;86.10
49855;DHT22;35752;52.164;21.244;2023-02-28T12:54:05;3.20;86.60
49855;DHT22;35752;52.164;21.244;2023-02-28T12:56:58;3.20;86.10
49855;DHT22;35752;52.164;21.244;2023-02-28T13:02:09;3.20;85.40
49855;DHT22;35752;52.164;21.244;2023-02-28T13:10:14;3.10;84.40
49855;DHT22;35752;52.164;21.244;2023-02-28T13:12:51;3.20;84.90
49855;DHT22;35752;52.164;21.244;2023-02-28T13:15:27;3.30;85.80
49855;DHT22;35752;52.164;21.244;2023-02-28T13:17:58;3.20;84.30
49855;DHT22;35752;52.164;21.244;2023-02-28T13:20:24;3.30;84.20
49855;DHT22;35752;52.164;21.244;2023-02-28T13:22:52;3.20;84.10
49855;DHT22;35752;52.164;21.244;2023-02-28T13:27:59;3.30;83.90
49855;DHT22;35752;52.164;21.244;2023-02-28T13:35:48;3.20;83.80
49855;DHT22;35752;52.164;21.244;2023-02-28T13:38:21;3.30;85.20
49855;DHT22;35752;52.164;21.244;2023-02-28T13:40:47;3.40;84.70
49855;DHT22;35752;52.164;21.244;2023-02-28T13:43:13;3.40;85.80
49855;DHT22;35752;52.164;21.244;2023-02-28T13:45:44;3.40;85.90
49855;DHT22;35752;52.164;21.244;2023-02-28T13:48:27;3.40;83.30
49855;DHT22;35752;52.164;21.244;2023-02-28T13:50:54;3.30;82.90
49855;DHT22;35752;52.164;21.244;2023-02-28T13:53:34;3.30;83.30
49855;DHT22;35752;52.164;21.244;2023-02-28T13:56:09;3.30;83.20
49855;DHT22;35752;52.164;21.244;2023-02-28T14:08:44;3.30;84.60
49855;DHT22;35752;52.164;21.244;2023-02-28T14:11:23;3.30;83.30
49855;DHT22;35752;52.164;21.244;2023-02-28T14:13:49;3.30;83.90
49855;DHT22;35752;52.164;21.244;2023-02-28T14:16:24;3.40;83.00
49855;DHT22;35752;52.164;21.244;2023-02-28T14:21:24;3.40;81.80
49855;DHT22;35752;52.164;21.244;2023-02-28T14:27:18;3.40;82.00
49855;DHT22;35752;52.164;21.244;2023-02-28T14:37:20;3.20;83.60
49855;DHT22;35752;52.164;21.244;2023-02-28T14:39:45;3.30;84.00
49855;DHT22;35752;52.164;21.244;2023-02-28T14:44:55;3.20;84.80
49855;DHT22;35752;52.164;21.244;2023-02-28T14:47:25;3.20;84.90
49855;DHT22;35752;52.164;21.244;2023-02-28T14:49:53;3.20;84.70
49855;DHT22;35752;52.164;21.244;2023-02-28T14:54:44;3.10;84.60
49855;DHT22;35752;52.164;21.244;2023-02-28T14:57:23;3.10;85.90
49855;DHT22;35752;52.164;21.244;2023-02-28T15:02:25;3.00;86.10
49855;DHT22;35752;52.164;21.244;2023-02-28T15:04:54;2.90;85.20
49855;DHT22;35752;52.164;21.244;2023-02-28T15:07:20;3.00;84.80
49855;DHT22;35752;52.164;21.244;2023-02-28T15:12:37;2.90;85.90
49855;DHT22;35752;52.164;21.244;2023-02-28T15:15:04;2.80;85.70
49855;DHT22;35752;52.164;21.244;2023-02-28T15:17:30;2.70;87.20
49855;DHT22;35752;52.164;21.244;2023-02-28T15:19:56;2.70;88.50
49855;DHT22;35752;52.164;21.244;2023-02-28T15:22:29;2.60;90.20
49855;DHT22;35752;52.164;21.244;2023-02-28T15:24:56;2.50;90.40
49855;DHT22;35752;52.164;21.244;2023-02-28T15:27:22;2.40;89.70
49855;DHT22;35752;52.164;21.244;2023-02-28T15:32:41;2.30;89.80
49855;DHT22;35752;52.164;21.244;2023-02-28T15:35:17;2.20;89.70
49855;DHT22;35752;52.164;21.244;2023-02-28T15:37:52;2.10;90.50
49855;DHT22;35752;52.164;21.244;2023-02-28T15:43:32;2.00;91.10
49855;DHT22;35752;52.164;21.244;2023-02-28T15:48:23;1.80;91.10
49855;DHT22;35752;52.164;21.244;2023-02-28T15:50:51;1.80;91.30
49855;DHT22;35752;52.164;21.244;2023-02-28T15:53:19;1.70;91.30
49855;DHT22;35752;52.164;21.244;2023-02-28T15:55:51;1.50;91.50
49855;DHT22;35752;52.164;21.244;2023-02-28T15:58:17;1.40;91.40
49855;DHT22;35752;52.164;21.244;2023-02-28T16:00:44;1.40;92.00
49855;DHT22;35752;52.164;21.244;2023-02-28T16:03:24;1.30;92.00
49855;DHT22;35752;52.164;21.244;2023-02-28T16:06:09;1.20;92.40
49855;DHT22;35752;52.164;21.244;2023-02-28T16:08:35;1.10;92.80
49855;DHT22;35752;52.164;21.244;2023-02-28T16:11:00;1.10;93.00
49855;DHT22;35752;52.164;21.244;2023-02-28T16:13:26;1.00;93.20
49855;DHT22;35752;52.164;21.244;2023-02-28T16:15:51;0.90;93.60
49855;DHT22;35752;52.164;21.244;2023-02-28T16:18:17;0.90;93.70
49855;DHT22;35752;52.164;21.244;2023-02-28T16:20:42;0.70;94.00
49855;DHT22;35752;52.164;21.244;2023-02-28T16:23:09;0.70;94.50
49855;DHT22;35752;52.164;21.244;2023-02-28T16:25:36;0.70;94.90
49855;DHT22;35752;52.164;21.244;2023-02-28T16:28:02;0.60;95.30
49855;DHT22;35752;52.164;21.244;2023-02-28T16:30:28;0.40;96.00
49855;DHT22;35752;52.164;21.244;2023-02-28T16:32:56;0.40;96.10
49855;DHT22;35752;52.164;21.244;2023-02-28T16:35:22;0.40;96.70
49855;DHT22;35752;52.164;21.244;2023-02-28T16:37:48;0.30;97.00
49855;DHT22;35752;52.164;21.244;2023-02-28T16:40:14;0.20;97.50
49855;DHT22;35752;52.164;21.244;2023-02-28T16:42:40;0.20;97.80
49855;DHT22;35752;52.164;21.244;2023-02-28T16:45:06;0.10;98.30
49855;DHT22;35752;52.164;21.244;2023-02-28T16:47:31;0.00;99.20
49855;DHT22;35752;52.164;21.244;2023-02-28T16:49:58;0.00;99.90
49855;DHT22;35752;52.164;21.244;2023-02-28T16:52:23;-0.10;99.80
49855;DHT22;35752;52.164;21.244;2023-02-28T16:54:49;-0.10;99.90
49855;DHT22;35752;52.164;21.244;2023-02-28T16:57:21;-0.30;99.90
49855;DHT22;35752;52.164;21.244;2023-02-28T16:59:48;-0.20;99.90
49855;DHT22;35752;52.164;21.244;2023-02-28T17:02:16;-0.30;99.90
49855;DHT22;35752;52.164;21.244;2023-02-28T17:04:44;-0.40;99.90
49855;DHT22;35752;52.164;21.244;2023-02-28T17:07:11;-0.40;99.90
49855;DHT22;35752;52.164;21.244;2023-02-28T17:09:37;-0.40;99.90
49855;DHT22;35752;52.164;21.244;2023-02-28T17:12:03;-0.40;99.90
49855;DHT22;35752;52.164;21.244;2023-02-28T17:14:28;-0.40;99.90
49855;DHT22;35752;52.164;21.244;2023-02-28T17:16:54;-0.50;99.90
49855;DHT22;35752;52.164;21.244;2023-02-28T17:19:19;-0.70;99.90
49855;DHT22;35752;52.164;21.244;2023-02-28T17:21:45;-0.90;99.90
49855;DHT22;35752;52.164;21.244;2023-02-28T17:24:11;-0.90;99.90
49855;DHT22;35752;52.164;21.244;2023-02-28T17:26:37;-0.80;99.90
49855;DHT22;35752;52.164;21.244;2023-02-28T17:29:04;-0.90;99.90
49855;DHT22;35752;52.164;21.244;2023-02-28T17:31:30;-1.00;99.90
49855;DHT22;35752;52.164;21.244;2023-02-28T17:33:58;-1.10;99.90
49855;DHT22;35752;52.164;21.244;2023-02-28T17:36:25;-1.10;99.90
49855;DHT22;35752;52.164;21.244;2023-02-28T17:38:51;-1.20;99.90
49855;DHT22;35752;52.164;21.244;2023-02-28T17:41:17;-1.30;99.90
49855;DHT22;35752;52.164;21.244;2023-02-28T17:43:43;-1.30;99.90
49855;DHT22;35752;52.164;21.244;2023-02-28T17:46:11;-1.40;99.90
49855;DHT22;35752;52.164;21.244;2023-02-28T17:48:40;-1.50;99.90